RUNMAGEDDON FINAL LIGI

Wydarzenie:
Organizator:
Extreme Events, Runmageddon
Data:
2018-11-18
Miejsce:
Siedlce
Dystans:
10 km
Zgłoszonych:
1196
Wystartowało:
1088
Nie ukończyło:
26
Ukończyło:
1062
Na trasie:
18
Pełne wyniki :
Wyniki uproszczone:
Wyniki nieoficjalne !!!
Klasyfikacje w punktach pomiarowych: Start | 1.5km | 5km | Meta

MscZawodnikNumerKlubMiejscowośćKrajKategoriaMkatK/MSeriaCzas startuPoint_1
1.5km
Point_2
5km
Czas
netto
12km
Czas
brutto
12km
Różn.Tempo
min/km
Tempo
km/h
          
1BRUSIŁO Bartosz 1147Mamy RuszamyOpen Mężczyzn10M 1311:1500:00:0000:08:5400:33:4801:21:01.9001:21:01.90 6:458.9
2GÓRSKI Jan 1084Open Mężczyzn25M 3511:1500:00:0000:09:3100:39:5201:28:48.2501:28:48.25+00:07:467:248.1
3ŁAWRENCZUK Paweł 1048Husaria Race Team Open Mężczyzn35M 4711:1500:00:0000:09:4100:34:4701:33:41.6501:33:41.65+00:12:397:487.7
4KOZŁOWSKI Zbigniew 1090Open Mężczyzn54M 6711:1500:00:0000:10:2000:37:0501:35:53.2001:35:53.20+00:14:517:597.5
5WOJEWODA Sylwester 1108Open Mężczyzn72M 8911:1500:00:0000:11:2100:44:0201:39:53.3001:39:53.30+00:18:518:197.2
6LASKOWSKI Grzegorz 1091Open Mężczyzn73M 9011:1500:00:0000:11:1900:43:5701:39:54.1001:39:54.10+00:18:528:197.2
7BOGUSKI Adrian 1079Open Mężczyzn77M 9411:1500:00:0000:11:2200:43:5801:40:26.9001:40:26.90+00:19:258:227.2
8BORUC Tomasz 1046Dzikie Turbo PtysieOpen Mężczyzn78M 9511:1500:00:0000:12:0400:44:5201:40:59.3501:40:59.35+00:19:578:247.1
9STACHELEK Wojciech 1102Open Mężczyzn87M 10811:1500:00:0000:11:2600:44:0201:42:03.0001:42:03.00+00:21:018:307.1
10SMEKTAŁA Adam 1101Open Mężczyzn93M 11611:1500:00:0000:09:2700:34:0501:42:29.6501:42:29.65+00:21:278:327
11GAJEWSKI Jaromir 1082Open Mężczyzn98M 12211:1500:00:0000:10:4400:41:1401:43:00.5501:43:00.55+00:21:588:357
12KAMIONKA Mateusz 1047Husaria Race Team Open Mężczyzn124M 15011:1500:00:0000:08:5000:34:0501:45:35.9001:45:35.90+00:24:348:476.8
13ODEJEWSKI Dariusz 1095Open Mężczyzn125M 15111:1500:00:0000:09:4000:37:0401:45:36.6501:45:36.65+00:24:348:486.8
14KWIATKOWSKI Marcin 1033ANWILTEAMOpen Mężczyzn133M 15911:1500:00:0000:13:1000:47:3901:46:16.6501:46:16.65+00:25:148:516.8
15WITECKI Filip 1034ANWILTEAMOpen Mężczyzn134M 16011:1500:00:0000:13:1200:47:4001:46:17.7001:46:17.70+00:25:158:516.8
16WIJAS Andrzej 1106Open Mężczyzn135M 16111:1500:00:0000:10:5700:41:1801:46:29.4001:46:29.40+00:25:278:526.8
17PTAK Patryk 1035Biegnę, żeby Bartek mógł biegaćOpen Mężczyzn136M 16211:1500:00:0000:10:5700:41:1801:46:30.8001:46:30.80+00:25:288:526.8
18MIELCZAREK Patryk 1037BYKI BYTOMOpen Mężczyzn163M 19711:1500:00:0000:12:2700:46:0701:50:45.3501:50:45.35+00:29:439:136.5
19PAWŁOWSKI Grzegorz 1038BYKI BYTOMOpen Masters Mężczyzn32M 19811:1500:00:0000:12:1400:46:0201:50:45.4501:50:45.45+00:29:439:136.5
20MIELCZAREK Adam 1036BYKI BYTOMOpen Masters Mężczyzn33M 19911:1500:00:0000:12:2200:46:0701:50:45.4501:50:45.45+00:29:439:136.5
21KUCHTA Łukasz 1066runcoholicsOpen Mężczyzn165M 20211:1500:00:0000:13:1000:51:1401:50:58.4001:50:58.40+00:29:569:146.5
22KOCLEGA Krzysztof 1065runcoholicsOpen Mężczyzn177M 21511:1500:00:0000:13:1200:51:1201:51:55.0001:51:55.00+00:30:539:196.4
23GRZEGOLEC Anna 1086Open Kobiet14K 2011:1500:00:0000:13:1300:51:1501:51:55.5001:51:55.50+00:30:539:196.4
24JAROSZ Marcin 1073SzoszonyOpen Mężczyzn193M 23211:1500:00:0000:12:3200:48:1601:53:14.7001:53:14.70+00:32:129:266.4
25JASKÓLSKI Michał 1074SzoszonyOpen Mężczyzn194M 23311:1500:00:0000:12:4100:48:2001:53:15.0001:53:15.00+00:32:139:266.4
26MALEC Tomasz 1094Open Mężczyzn212M 25711:1500:00:0000:11:1300:42:4801:54:15.5501:54:15.55+00:33:139:316.3
27MASTALEREK Jan 1075SzoszonyOpen Mężczyzn226M 27111:1500:00:0000:12:2600:48:1601:55:02.9501:55:02.95+00:34:019:356.3
28PONTUS Piotr 1028#SoundTeamOpen Mężczyzn242M 29211:1500:00:0000:11:3500:47:1501:57:01.7501:57:01.75+00:35:599:456.2
29BĘTLEWSKI Adam 1049J.K.N.WOpen Mężczyzn270M 32911:1500:00:0000:12:4800:48:3502:00:09.8002:00:09.80+00:39:0710:006
30STATKIEWICZ Jakub 1050J.K.N.W.Open Mężczyzn271M 33011:1500:00:0000:12:4600:48:3502:00:10.4502:00:10.45+00:39:0810:006
31MALEC Bartłomiej 1076Warchlaki AdelajdyOpen Mężczyzn291M 35311:1500:00:0000:11:1200:42:4602:02:20.2502:02:20.25+00:41:1810:115.9
32TATARA Michał 1105Open Mężczyzn296M 35811:1500:00:0000:09:5800:38:1802:02:38.6502:02:38.65+00:41:3610:135.9
33GIETEK Kamil 1083Open Mężczyzn308M 37211:1500:00:0000:11:2800:44:0102:03:28.2502:03:28.25+00:42:2610:175.8
34RAMIEGA Cezary 1123FISIAK GDZIE LECIMY?Open Mężczyzn314M 37911:1500:04:2000:20:2000:53:5602:00:30.3502:04:50.50+00:43:4810:026
35PAWŁOWSKI Przemysław 1098Open Masters Mężczyzn62M 38511:1500:00:0000:14:2200:50:5202:05:34.4002:05:34.40+00:44:3210:275.7
36PAŚNIK Jerzy 1097Open Mężczyzn319M 38611:1500:00:0000:14:2000:50:5002:05:35.1502:05:35.15+00:44:3310:275.7
37KOWALIK Karol 1089Open Mężczyzn334M 40711:1500:00:0000:13:4900:52:4902:06:40.2002:06:40.20+00:45:3810:335.7
38SZYLKIN Wojciech 1055LECZNICA TEAMOpen Mężczyzn342M 41611:1500:00:0000:13:3000:52:1902:06:53.7502:06:53.75+00:45:5110:345.7
39DURAJSKI Ariel 1054LECZNICA TEAMOpen Mężczyzn343M 41711:1500:00:0000:13:3200:52:2702:06:54.7002:06:54.70+00:45:5210:345.7
40ZAJĄC Paweł 1052kojotyOpen Mężczyzn370M 45211:1500:00:0000:13:4100:50:5802:08:47.1502:08:47.15+00:47:4510:435.6
41GAŁAN Tomasz 1051kojotyOpen Mężczyzn371M 45311:1500:00:0000:13:4000:50:5402:08:47.2002:08:47.20+00:47:4510:435.6
42MACIASZEK Grzegorz 1067Samotny Dzik!Open Mężczyzn402M 48711:1500:00:0000:12:0800:48:5702:10:52.1002:10:52.10+00:49:5010:545.5
43ANDRYCHOWICZ Radosław 1077Open Masters Mężczyzn82M 51111:1500:00:0000:13:5400:49:1302:12:18.6502:12:18.65+00:51:1611:015.4
44LIS Milena 1092Open Kobiet66K 8111:1500:00:0000:14:3300:53:5302:13:06.2502:13:06.25+00:52:0411:055.4
45POKRYSZKA Wojciech 1099Open Mężczyzn427M 51811:1500:00:0000:14:3500:53:5302:13:06.7002:13:06.70+00:52:0411:055.4
46BIELECKI Darek 1056Moto-TeamOpen Masters Mężczyzn88M 53011:1500:00:0000:14:0600:56:4602:13:55.6002:13:55.60+00:52:5311:095.4
47PRZEDPEŁSKI Mariusz 1058Moto-TeamOpen Mężczyzn440M 53611:1500:00:0000:14:0700:56:4202:14:07.0502:14:07.05+00:53:0511:105.4
48ZOZULA Artur 1059Moto-TeamOpen Masters Mężczyzn93M 55111:1500:00:0000:14:1200:56:4202:14:57.3002:14:57.30+00:53:5511:145.3
49BASZKIEWICZ Michał 1060POGromcyOpen Mężczyzn456M 55611:1500:00:0000:15:5700:59:3602:15:21.8002:15:21.80+00:54:1911:165.3
50SZLADEWSKI Oskar 1103Open Mężczyzn457M 55711:1500:00:0000:14:1700:57:2802:15:22.3002:15:22.30+00:54:2011:165.3
51CZMOK Robert 1061POGromcyOpen Masters Mężczyzn95M 55911:1500:00:0000:16:0100:59:3702:15:24.4002:15:24.40+00:54:2211:175.3
52SCHULZ Jędrzej 1063POGromcyOpen Mężczyzn459M 56011:1500:00:0000:15:5800:59:3602:15:27.5502:15:27.55+00:54:2511:175.3
53FORTUNA-CZMOK Jolanta 1062POGromcyOpen Masters Kobiet16K 8911:1500:00:0000:16:2500:59:4302:15:29.3502:15:29.35+00:54:2711:175.3
54JAGODZIŃSKA-SZYMCZYK Joanna 1087Open Kobiet75K 9111:1500:00:0000:18:0401:06:2502:15:32.7002:15:32.70+00:54:3011:175.3
55OPRYŃSKI Szymon 1096Open Mężczyzn462M 56311:1500:00:0000:18:0401:06:2302:15:33.4502:15:33.45+00:54:3111:175.3
56KNOPIK Łukasz 1057Moto-TeamOpen Masters Mężczyzn100M 60711:1500:00:0000:14:2100:57:2802:19:00.9502:19:00.95+00:57:5911:355.2
57LECH Rafał 1041CSS SZAFAOpen Mężczyzn514M 62011:1500:00:0000:13:5100:57:5402:20:31.3502:20:31.35+00:59:2911:425.1
58MIRYS Rafał 1043CSS SZAFAOpen Mężczyzn515M 62111:1500:00:0000:13:4300:57:4502:20:31.5002:20:31.50+00:59:2911:425.1
59MAREK Piotr 1042CSS SZAFAOpen Masters Mężczyzn101M 62211:1500:00:0000:13:4600:57:4602:20:31.7002:20:31.70+00:59:2911:425.1
60HORAK Marek 1040CSS SZAFAOpen Mężczyzn516M 62311:1500:00:0000:13:4800:57:4602:20:31.8002:20:31.80+00:59:2911:425.1
61RUDZIŃSKI Radosław 10324FIT CROSS BIAŁOGARDOpen Mężczyzn522M 63111:1500:00:0000:17:5501:00:0302:21:59.9502:21:59.95+01:00:5811:495.1
62RUDZIŃSKA Marlena 10314FIT CROSS BIAŁOGARDOpen Kobiet97K 11611:1500:00:0000:18:0701:00:0802:21:59.9502:21:59.95+01:00:5811:495.1
63BOSZKO Dominik 10294FIT CROSS BIAŁOGARDOpen Mężczyzn523M 63211:1500:00:0000:17:5401:00:0302:22:00.6502:22:00.65+01:00:5811:505.1
64BOSZKO Jolanta 10304FIT CROSS BIAŁOGARDOpen Kobiet98K 11711:1500:00:0000:18:0801:00:0802:22:00.8002:22:00.80+01:00:5811:505.1
65RYBAK Piotr 1100Open Mężczyzn548M 66511:1500:00:0000:15:2100:59:1602:26:09.3502:26:09.35+01:05:0712:104.9
66KOWALCZYK Marlena 1088Open Kobiet114K 13311:1500:00:0000:15:2200:59:1702:26:09.6502:26:09.65+01:05:0712:104.9
67HORBACZEWSKA Magdalena 308Open Kobiet135K 15811:1500:00:0000:14:1000:53:3702:32:46.3002:32:46.30+01:11:4412:434.7
68CIERCZEK Rafał 1081Open Mężczyzn600M 73211:1500:00:0000:15:3500:55:3502:33:32.1502:33:32.15+01:12:3012:474.7
69CIERCZEK Kamil 1080Open Mężczyzn601M 73311:1500:00:0000:15:3600:55:4602:33:33.6502:33:33.65+01:12:3112:474.7
70ZIELIŃSKI Tomasz 1109Open Mężczyzn606M 73811:1500:00:0000:11:0900:42:4602:34:23.0002:34:23.00+01:13:2112:514.7
71SZUKALSKI Maciej 1104Open Mężczyzn661M 80811:1500:00:0000:10:4900:46:1702:54:29.3502:54:29.35+01:33:2714:324.1
Znaleziono 71 wynik(ów)